メインページ
METAR-TAF:

METAR-TAF

空港 :

トレントン, オンタリオ州, カナダ

緯度: 44-07N, 経度: 077-32W, 海抜: 85m

現時点の気象観測

当レポートは1時間4分前の21:00(UTC)に作成
西/北西の風 11kt
気温 -6°C
湿度 41%
気圧 1032 hPa
視程: 24.1km
高度4500ftの雲はほとんどない

METAR: CYTR 202100Z 30011KT 15SM FEW045 M06/M17 A3048 RMK SC1 SLP327

時間: 17:04 (22:04 UTC)

予報

当レポートは4時間34分前の17:30(UTC)に作成
予報は20日の 18時(UTC)から 21日の 18時(UTC)まで有効
西の風 8kt、最大18ktの突風を伴う
視程: 10km
高度5000ftの雲はほとんどない
21日の 0000時(UTC)から
西の風 8kt
視程: 10km
高度3000ftの雲はほとんどない
21日の 0500時(UTC)から
西の風 5kt
視程: 10km
高度10000ftの雲は散在している
21日の 14時(UTC)から 21日の 16時(UTC)まで徐々に
西/南西の風 12kt、最大22ktの突風を伴う

TAF: CYTR 201730Z 2018/2118 28008G18KT P6SM FEW050 FM210000 28008KT P6SM FEW030 FM210500 28005KT P6SM SCT100 BECMG 2114/2116 25012G22KT RMK NXT FCST BY 210000Z

4,000以上の空港の気象観測と天気予報(METAR報とTAF報)

利用可能な観測所は地図上に黄色い丸と赤い丸で示す。

丸の上にカーソルを重ねると観測所名を参照できる。

次にクリックすると気象観測と天気予報を参照できる。

マップの切り替え:黒色「×」印の緑ボタンをクリックして拡大、「-」印の緑ボタンをクリックして縮小、緑色の三角印をクリックして隣りの地図に切り替え


METAR-TAF: